Historique des stations

Station météo de Maintenon

Altitude de la station : 131 m







Données météorologiques pour le 28/11/2021
Date
Heure
Températures Humidité Point de rosée Vitesse
du vent
Direction Rafales Windchill Pression Pluviométrie
Cumul
Date
Heure
Températures Humidité Point de rosée Vitesse
du vent
Direction Rafales Windchill Pression Pluviométrie
Cumul
28/11/2021 22:000.6 °C86 %-1.7 °C-NO29 km/h0.6 1007 hPa0.4 mm
28/11/2021 21:440.9 °C86 %-1.1 °C-NNO29 km/h1.1 1007 hPa0.4 mm
28/11/2021 21:300.6 °C87 %-1.1 °C-NO29 km/h0.6 1007 hPa0.4 mm
28/11/2021 21:140.3 °C88 %-1.1 °C-NO29 km/h0.6 1007 hPa0.4 mm
28/11/2021 20:590.3 °C87 %-1.7 °C-ONO29 km/h0.6 1007 hPa0.4 mm
28/11/2021 20:450.6 °C86 %-1.7 °C-ONO29 km/h0.6 1007 hPa0.4 mm
28/11/2021 20:291.3 °C85 %-1.1 °C-ONO29 km/h1.1 1007 hPa0.4 mm
28/11/2021 20:141.4 °C84 %-1.1 °C-ONO29 km/h1.7 1007 hPa0.4 mm
28/11/2021 19:591.7 °C84 %-0.6 °C-NNO29 km/h1.7 1007 hPa0.4 mm
28/11/2021 19:451.7 °C84 %-0.6 °C-ONO29 km/h1.7 1007 hPa0.4 mm
28/11/2021 19:292.1 °C83 %-0.6 °C-N29 km/h2.2 1006 hPa0.4 mm
28/11/2021 19:152.3 °C83 %-0.6 °C2 km/hN29 km/h1.7 1006 hPa0.4 mm
28/11/2021 19:002.4 °C83 %0.0 °C5 km/hO29 km/h1.1 1006 hPa0.4 mm
28/11/2021 18:452.2 °C83 %-0.6 °C-NE29 km/h2.2 1006 hPa0.4 mm
28/11/2021 18:292.3 °C82 %-0.6 °C-NO29 km/h2.2 1006 hPa0.4 mm
28/11/2021 18:152.4 °C81 %-0.6 °C-NO29 km/h2.2 1006 hPa0.4 mm
28/11/2021 18:002.7 °C80 %-0.6 °C-N29 km/h2.8 1006 hPa0.4 mm
28/11/2021 17:443.1 °C79 %0.0 °C3 km/hNNO29 km/h2.2 1006 hPa0.4 mm
28/11/2021 17:303.2 °C78 %-0.6 °C-NNO29 km/h3.3 1006 hPa0.4 mm
28/11/2021 17:143.6 °C77 %0.0 °C-NNO29 km/h3.9 1005 hPa0.4 mm
28/11/2021 16:593.9 °C76 %0.0 °C2 km/hNNO29 km/h3.3 1005 hPa0.4 mm
28/11/2021 16:454.2 °C73 %0.0 °C2 km/hNE29 km/h3.9 1005 hPa0.4 mm
28/11/2021 16:294.3 °C71 %-0.6 °C-NNE29 km/h4.4 1005 hPa0.4 mm
28/11/2021 16:154.6 °C71 %-0.6 °C6 km/hNNO29 km/h2.8 1005 hPa0.4 mm
28/11/2021 16:004.6 °C72 %0.0 °C10 km/hNNO29 km/h2.2 1005 hPa0.4 mm
28/11/2021 15:445.0 °C69 %0.0 °C5 km/hNO29 km/h4.4 1005 hPa0.4 mm
28/11/2021 15:305.7 °C73 %1.1 °C10 km/hNO29 km/h3.3 1005 hPa0.4 mm
28/11/2021 15:145.7 °C74 %1.7 °C2 km/hNNE29 km/h5.6 1004 hPa0.4 mm
28/11/2021 14:596.1 °C73 %1.7 °C10 km/hN29 km/h3.9 1004 hPa0.4 mm
28/11/2021 14:455.8 °C74 %1.7 °C6 km/hN29 km/h4.4 1004 hPa0.4 mm
28/11/2021 14:295.3 °C75 %1.1 °C-N29 km/h5.6 1004 hPa0.4 mm
28/11/2021 14:155.3 °C77 %1.7 °C2 km/hOSO29 km/h5.6 1004 hPa0.4 mm
28/11/2021 14:005.2 °C78 %1.7 °C3 km/hNNE29 km/h4.4 1004 hPa0.4 mm
28/11/2021 13:445.3 °C79 %2.2 °C3 km/hONO29 km/h5.0 1004 hPa0.4 mm
28/11/2021 13:305.4 °C79 %2.2 °C3 km/hNO29 km/h5.0 1004 hPa0.4 mm
28/11/2021 13:145.4 °C81 %2.2 °C11 km/hO29 km/h2.8 1004 hPa0.4 mm
28/11/2021 12:594.8 °C84 %2.2 °C8 km/hNNE29 km/h2.8 1004 hPa0.4 mm
28/11/2021 12:454.9 °C83 %2.2 °C6 km/hNO29 km/h3.9 1004 hPa0.4 mm
28/11/2021 12:294.7 °C82 %1.7 °C14 km/hNNO29 km/h1.7 1004 hPa0.4 mm
28/11/2021 12:154.6 °C84 %2.2 °C11 km/hNNE29 km/h1.7 1004 hPa0.4 mm
28/11/2021 12:004.7 °C84 %2.2 °C6 km/hNO29 km/h2.8 1004 hPa0.4 mm
28/11/2021 11:444.4 °C86 %2.2 °C3 km/hNNO29 km/h3.3 1004 hPa0.4 mm
28/11/2021 11:304.1 °C87 %2.2 °C5 km/hENE29 km/h2.8 1004 hPa0.4 mm
28/11/2021 11:143.9 °C89 %2.2 °C19 km/hNO29 km/h0.0 1004 hPa0.4 mm
28/11/2021 10:593.8 °C90 %2.2 °C6 km/hNNO29 km/h2.2 1004 hPa0.4 mm
28/11/2021 10:453.8 °C90 %2.2 °C5 km/hN29 km/h2.8 1004 hPa0.4 mm
28/11/2021 10:293.6 °C91 %2.2 °C3 km/hNNO29 km/h2.2 1004 hPa0.4 mm
28/11/2021 10:153.6 °C91 %2.2 °C5 km/hNE29 km/h2.2 1004 hPa0.4 mm
28/11/2021 09:593.6 °C90 %2.2 °C13 km/hONO29 km/h1.1 1004 hPa0.4 mm
28/11/2021 09:453.6 °C90 %2.2 °C-N29 km/h3.3 1004 hPa0.4 mm
28/11/2021 09:283.6 °C90 %2.2 °C3 km/hONO29 km/h2.8 1004 hPa0.4 mm
28/11/2021 09:143.7 °C89 %2.2 °C5 km/hNNO29 km/h2.8 1003 hPa0.4 mm
28/11/2021 09:003.6 °C89 %2.2 °C5 km/hO29 km/h2.2 1003 hPa0.4 mm
28/11/2021 08:443.8 °C88 %2.2 °C5 km/hNNO29 km/h2.8 1003 hPa0.4 mm
28/11/2021 08:303.8 °C88 %2.2 °C14 km/hNNE29 km/h0.6 1003 hPa0.4 mm
28/11/2021 08:143.8 °C88 %2.2 °C3 km/hN29 km/h2.8 1003 hPa0.4 mm
28/11/2021 07:593.7 °C89 %2.2 °C6 km/hNNO29 km/h2.2 1002 hPa0.4 mm
28/11/2021 07:443.6 °C89 %2.2 °C3 km/hNE29 km/h2.8 1002 hPa0.4 mm
28/11/2021 07:303.6 °C89 %2.2 °C2 km/hNO29 km/h3.3 1002 hPa0.4 mm
28/11/2021 07:143.7 °C88 %2.2 °C8 km/hNE29 km/h1.7 1002 hPa0.4 mm
28/11/2021 06:593.7 °C88 %1.7 °C6 km/hONO29 km/h2.2 1002 hPa0.4 mm
28/11/2021 06:453.7 °C89 %2.2 °C3 km/hESE29 km/h2.8 1002 hPa0.4 mm
28/11/2021 06:293.6 °C89 %2.2 °C5 km/hNO29 km/h2.8 1002 hPa0.4 mm
28/11/2021 06:153.6 °C89 %2.2 °C3 km/hNNO29 km/h2.2 1002 hPa0.4 mm
28/11/2021 06:003.6 °C89 %2.2 °C3 km/hNNO29 km/h2.2 1001 hPa0.4 mm
28/11/2021 05:443.6 °C89 %2.2 °C3 km/hNO29 km/h2.2 1001 hPa0.2 mm
28/11/2021 05:303.6 °C89 %2.2 °C8 km/hN29 km/h1.1 1001 hPa0.2 mm
28/11/2021 05:143.6 °C89 %2.2 °C3 km/hO29 km/h2.8 1001 hPa0.2 mm
28/11/2021 04:593.6 °C90 %2.2 °C11 km/hONO29 km/h1.1 1001 hPa0.2 mm
28/11/2021 04:453.6 °C90 %2.2 °C10 km/hNO29 km/h1.1 1001 hPa0.2 mm
28/11/2021 04:293.6 °C91 %2.2 °C5 km/hNO29 km/h2.8 1001 hPa0.2 mm
28/11/2021 04:153.6 °C91 %2.2 °C5 km/hNO29 km/h2.8 1001 hPa0.2 mm
28/11/2021 03:583.6 °C91 %2.2 °C11 km/hO29 km/h0.6 1001 hPa0.2 mm
28/11/2021 03:453.5 °C91 %2.2 °C3 km/hNO29 km/h2.2 1001 hPa0.2 mm
28/11/2021 03:273.7 °C91 %2.2 °C21 km/hNNO29 km/h-0.6 1001 hPa-
28/11/2021 03:153.9 °C90 %2.2 °C5 km/hNNO23 km/h2.8 1001 hPa-
28/11/2021 03:003.9 °C90 %2.8 °C3 km/hN23 km/h2.8 1001 hPa-
28/11/2021 02:444.1 °C90 %2.8 °C3 km/hN23 km/h2.8 1001 hPa-
28/11/2021 02:304.1 °C90 %2.8 °C5 km/hNNO23 km/h2.8 1000 hPa-
28/11/2021 02:144.1 °C91 %2.8 °C10 km/hNNO23 km/h1.1 1000 hPa-
28/11/2021 01:594.1 °C91 %2.8 °C5 km/hNO23 km/h2.8 1000 hPa-
28/11/2021 01:454.1 °C91 %2.8 °C6 km/hNO23 km/h2.2 1000 hPa-
28/11/2021 01:294.2 °C91 %2.8 °C3 km/hNNO23 km/h3.3 1000 hPa-
28/11/2021 01:154.3 °C91 %2.8 °C3 km/hNNO16 km/h3.3 1000 hPa-
28/11/2021 01:004.1 °C92 %2.8 °C2 km/hONO16 km/h3.3 1000 hPa-
28/11/2021 00:444.1 °C92 %2.8 °C3 km/hNNO16 km/h2.8 1000 hPa-
28/11/2021 00:304.1 °C92 %2.8 °C5 km/hONO14 km/h2.8 999 hPa-
28/11/2021 00:144.2 °C92 %2.8 °C3 km/hOSO14 km/h3.3 999 hPa-


Minima :

Température : 0.3 °C
Humidité : 69 %
Point de rosée : -1.7 °C
Vent moyen : 2 km/h
Windchill : -0.6
Pression atm. : 999 hPa
Maxima :

Température : 6.1 °C
Humidité : 92 %
Point de rosée : 2.8 °C
Vent moyen : 21 km/h
Windchill : 5.6
Pression atm. : 1007 hPa
Rafales max : 29 km/h
Cumul de pluie sur 24H : 0.4 mm

Maintenon est une commune du département Eure-et-Loir (28).
La station météorologique du réseau de l'association la plus proche de Maintenon est celle de Chaudon
Site du propriétaire de la station : http://meteo.maingournois.pagesperso-orange.fr/



Icône Facebook Association Météo Centre Icône Twitter Association Météo Centre Icône Chaîne Youtube Association Météo Centre Icône contact Association Météo Centre Icône Insta Association Météo Centre